Time;durP1;ratioP1;P1;durP2;ratioP2;P2;SDS_P1;SDS_P2;PMS_P1;PMS_P2;Temp;Humidity;BMP_temperature;BMP_pressure;BME280_temperature;BME280_humidity;BME280_pressure;Samples;Min_cycle;Max_cycle;Signal;HPM_P1;HPM_P2
2022/02/01 00:02:10;;;;;;;76.03;42.38;;;;;;;;;;5080823;28;20081;-83
2022/02/01 00:39:09;;;;;;;73.28;40.38;;;;;;;;;;5083160;28;20475;-81
2022/02/01 00:41:40;;;;;;;66.95;35.60;;;;;;;;;;5081163;28;20024;-84
2022/02/01 00:44:06;;;;;;;58.30;31.90;;;;;;;;;;5081455;28;20070;-84
2022/02/01 00:46:34;;;;;;;52.92;28.27;;;;;;;;;;5065063;28;20089;-81
2022/02/01 00:49:00;;;;;;;46.90;26.20;;;;;;;;;;5084404;28;20024;-82
2022/02/01 00:51:26;;;;;;;48.10;27.40;;;;;;;;;;5093450;28;20494;-83
2022/02/01 00:53:52;;;;;;;45.95;23.70;;;;;;;;;;5075262;28;20035;-81
2022/02/01 00:56:19;;;;;;;44.17;23.08;;;;;;;;;;5075521;28;20036;-83
2022/02/01 00:58:45;;;;;;;39.47;21.48;;;;;;;;;;5093450;28;20097;-81
2022/02/01 01:01:12;;;;;;;34.88;21.85;;;;;;;;;;5075503;28;20020;-80
2022/02/01 01:03:39;;;;;;;29.40;15.95;;;;;;;;;;5075737;28;20047;-82
2022/02/01 01:06:05;;;;;;;28.23;15.88;;;;;;;;;;5093429;28;20501;-83
2022/02/01 01:08:31;;;;;;;27.58;14.90;;;;;;;;;;5075354;28;20024;-83
2022/02/01 01:10:58;;;;;;;29.42;15.18;;;;;;;;;;5075010;28;20054;-84
2022/02/01 01:38:44;;;;;;;29.88;17.88;;;;;;;;;;5094167;28;20124;-80
2022/02/01 01:43:53;;;;;;;22.75;11.38;;;;;;;;;;5093923;28;20066;-83
2022/02/01 01:54:20;;;;;;;26.48;14.43;;;;;;;;;;5073275;28;20113;-80
2022/02/01 01:56:47;;;;;;;34.13;16.35;;;;;;;;;;5072863;28;20032;-83
2022/02/01 01:59:14;;;;;;;34.45;15.77;;;;;;;;;;5073409;28;20165;-79
2022/02/01 02:01:42;;;;;;;31.35;16.05;;;;;;;;;;5073173;28;20025;-83
2022/02/01 02:04:08;;;;;;;23.83;12.23;;;;;;;;;;5073733;28;20028;-82
2022/02/01 02:06:36;;;;;;;29.48;15.70;;;;;;;;;;5055235;28;20032;-84
2022/02/01 02:09:05;;;;;;;32.05;17.90;;;;;;;;;;5072930;28;20423;-85
2022/02/01 02:16:48;;;;;;;21.65;13.15;;;;;;;;;;5072678;28;20059;-83
2022/02/01 02:19:14;;;;;;;22.00;12.30;;;;;;;;;;5072993;28;20383;-80
2022/02/01 02:21:41;;;;;;;25.52;15.60;;;;;;;;;;5072728;28;20067;-85
2022/02/01 02:24:08;;;;;;;29.42;16.30;;;;;;;;;;5072711;28;20032;-80
2022/02/01 02:26:34;;;;;;;25.48;13.05;;;;;;;;;;5072517;28;20044;-83
2022/02/01 02:29:02;;;;;;;28.70;13.73;;;;;;;;;;5055618;28;20067;-81
2022/02/01 02:31:30;;;;;;;25.90;12.57;;;;;;;;;;5072541;28;20028;-83
2022/02/01 02:34:07;;;;;;;24.40;13.55;;;;;;;;;;5072531;28;20434;-80
2022/02/01 02:36:36;;;;;;;26.77;13.82;;;;;;;;;;5072523;28;20479;-82
2022/02/01 02:47:03;;;;;;;17.08;10.52;;;;;;;;;;5072648;28;20035;-83
2022/02/01 02:49:29;;;;;;;18.70;10.02;;;;;;;;;;5075643;28;20469;-81
2022/02/01 02:51:55;;;;;;;25.25;10.77;;;;;;;;;;5092246;28;20027;-83
2022/02/01 02:54:23;;;;;;;23.70;11.48;;;;;;;;;;5092528;28;20063;-82
2022/02/01 02:56:50;;;;;;;20.40;10.00;;;;;;;;;;5092158;28;20439;-82
2022/02/01 02:59:17;;;;;;;20.00;9.40;;;;;;;;;;5092548;28;20086;-85
2022/02/01 03:01:47;;;;;;;21.95;10.00;;;;;;;;;;5092456;28;20024;-81
2022/02/01 03:04:14;;;;;;;21.45;11.02;;;;;;;;;;5092544;28;20024;-84
2022/02/01 03:06:40;;;;;;;20.13;10.20;;;;;;;;;;5091152;28;20066;-83
2022/02/01 03:09:06;;;;;;;15.90;8.68;;;;;;;;;;5092528;28;20482;-81
2022/02/01 03:11:32;;;;;;;18.02;9.13;;;;;;;;;;5092495;28;20024;-81
2022/02/01 03:14:01;;;;;;;16.58;7.88;;;;;;;;;;5090994;28;20119;-82
2022/02/01 03:22:01;;;;;;;;;;;;;;;;;;5093012;28;20043;-82
2022/02/01 03:24:27;;;;;;;15.48;8.40;;;;;;;;;;5092108;28;19904;-80
2022/02/01 03:26:53;;;;;;;14.93;6.75;;;;;;;;;;5092176;28;20053;-84
2022/02/01 03:29:20;;;;;;;15.13;7.63;;;;;;;;;;5092106;28;20028;-85
2022/02/01 03:31:46;;;;;;;17.33;9.48;;;;;;;;;;5092322;28;20057;-82
2022/02/01 03:34:12;;;;;;;17.10;8.27;;;;;;;;;;5092011;28;20031;-82
2022/02/01 03:36:38;;;;;;;19.52;8.60;;;;;;;;;;5091992;28;20395;-84
2022/02/01 03:39:04;;;;;;;18.10;8.82;;;;;;;;;;5092109;28;20039;-80
2022/02/01 03:41:30;;;;;;;15.25;7.03;;;;;;;;;;5091983;28;20024;-83
2022/02/01 03:43:57;;;;;;;35.97;20.77;;;;;;;;;;5092018;28;20132;-83
2022/02/01 03:46:23;;;;;;;36.85;19.08;;;;;;;;;;5091937;28;20024;-81
2022/02/01 03:48:49;;;;;;;24.55;13.32;;;;;;;;;;5090891;28;20026;-85
2022/02/01 03:51:15;;;;;;;28.23;16.30;;;;;;;;;;5090434;28;20122;-80
2022/02/01 03:53:41;;;;;;;24.25;13.18;;;;;;;;;;5092045;28;20062;-81
2022/02/01 03:56:09;;;;;;;18.20;10.57;;;;;;;;;;5090550;28;20125;-81
2022/02/01 03:58:35;;;;;;;19.80;9.25;;;;;;;;;;5092232;28;20028;-83
2022/02/01 04:01:01;;;;;;;15.40;7.53;;;;;;;;;;5094069;28;20028;-82
2022/02/01 04:03:28;;;;;;;11.65;7.72;;;;;;;;;;5095589;28;20093;-82
2022/02/01 04:05:54;;;;;;;14.73;7.20;;;;;;;;;;5094333;28;20470;-85
2022/02/01 04:08:22;;;;;;;17.15;8.55;;;;;;;;;;5095463;28;20505;-83
2022/02/01 04:10:50;;;;;;;11.95;7.53;;;;;;;;;;5094341;28;20459;-82
2022/02/01 04:13:16;;;;;;;14.65;6.85;;;;;;;;;;5095384;28;20161;-82
2022/02/01 04:15:42;;;;;;;12.35;6.75;;;;;;;;;;5095317;28;20436;-83
2022/02/01 04:18:09;;;;;;;19.80;11.57;;;;;;;;;;5095523;28;20367;-82
2022/02/01 04:20:36;;;;;;;23.98;12.82;;;;;;;;;;5095236;28;20032;-83
2022/02/01 04:23:02;;;;;;;26.73;15.70;;;;;;;;;;5095342;28;20039;-86
2022/02/01 04:25:28;;;;;;;79.70;41.28;;;;;;;;;;5095096;28;20085;-81
2022/02/01 04:27:55;;;;;;;73.30;42.00;;;;;;;;;;5095267;28;20397;-83
2022/02/01 04:30:21;;;;;;;49.40;29.80;;;;;;;;;;5095297;28;20040;-83
2022/02/01 04:32:49;;;;;;;21.83;13.20;;;;;;;;;;5093874;28;20031;-82
2022/02/01 04:35:17;;;;;;;20.00;10.90;;;;;;;;;;5095030;28;20097;-81
2022/02/01 04:37:43;;;;;;;16.13;8.00;;;;;;;;;;5094907;28;20520;-83
2022/02/01 04:40:10;;;;;;;14.50;7.57;;;;;;;;;;5094868;28;20467;-81
2022/02/01 04:42:38;;;;;;;11.38;6.82;;;;;;;;;;5094727;28;20020;-82
2022/02/01 04:45:15;;;;;;;11.25;6.68;;;;;;;;;;5094822;28;20544;-82
2022/02/01 04:47:41;;;;;;;10.48;5.45;;;;;;;;;;5094821;28;20024;-84
2022/02/01 04:50:13;;;;;;;10.20;5.70;;;;;;;;;;5094642;28;20036;-80
2022/02/01 04:52:40;;;;;;;11.95;6.60;;;;;;;;;;5093662;28;20115;-81
2022/02/01 04:55:06;;;;;;;28.75;17.38;;;;;;;;;;5093362;28;20093;-82
2022/02/01 04:57:33;;;;;;;29.55;17.30;;;;;;;;;;5094470;28;20024;-82
2022/02/01 04:59:59;;;;;;;24.05;16.00;;;;;;;;;;5094746;28;20023;-82
2022/02/01 05:02:25;;;;;;;19.55;9.48;;;;;;;;;;5093453;28;20110;-82
2022/02/01 05:04:51;;;;;;;58.83;32.83;;;;;;;;;;5094754;28;20538;-84
2022/02/01 05:07:21;;;;;;;9.23;5.22;;;;;;;;;;5094323;28;20059;-80
2022/02/01 05:09:48;;;;;;;9.95;5.38;;;;;;;;;;5096701;28;20020;-83
2022/02/01 05:12:16;;;;;;;9.07;5.80;;;;;;;;;;5097785;28;20024;-81
2022/02/01 05:14:42;;;;;;;8.05;4.22;;;;;;;;;;5098088;28;20024;-80
2022/02/01 05:17:08;;;;;;;8.88;4.75;;;;;;;;;;5096778;28;20036;-83
2022/02/01 05:22:04;;;;;;;109.60;66.60;;;;;;;;;;5097269;28;20056;-85
2022/02/01 05:24:32;;;;;;;88.65;57.13;;;;;;;;;;5095002;28;20463;-81
2022/02/01 05:27:00;;;;;;;13.02;8.43;;;;;;;;;;5092999;28;20372;-82
2022/02/01 05:29:27;;;;;;;10.38;6.30;;;;;;;;;;5095311;28;20024;-84
2022/02/01 05:31:53;;;;;;;10.82;5.63;;;;;;;;;;5095813;28;20020;-84
2022/02/01 05:34:20;;;;;;;8.27;3.97;;;;;;;;;;5094079;28;20471;-82
2022/02/01 05:36:53;;;;;;;6.82;4.22;;;;;;;;;;5095892;28;20032;-84
2022/02/01 05:39:26;;;;;;;6.15;3.08;;;;;;;;;;5093434;28;20024;-83
2022/02/01 05:41:55;;;;;;;10.70;5.80;;;;;;;;;;5093924;28;20402;-83
2022/02/01 05:44:21;;;;;;;15.18;3.85;;;;;;;;;;5093625;28;20035;-81
2022/02/01 05:46:47;;;;;;;8.57;4.35;;;;;;;;;;5093847;28;20032;-83
2022/02/01 05:49:13;;;;;;;7.10;4.22;;;;;;;;;;5092695;28;20024;-83
2022/02/01 05:51:40;;;;;;;10.23;5.15;;;;;;;;;;5095003;28;20024;-83
2022/02/01 05:54:06;;;;;;;12.48;5.30;;;;;;;;;;5093564;28;20040;-79
2022/02/01 05:56:32;;;;;;;11.20;5.70;;;;;;;;;;5093332;28;20036;-80
2022/02/01 05:58:58;;;;;;;8.77;6.03;;;;;;;;;;5093588;28;20111;-80
2022/02/01 06:01:24;;;;;;;10.93;6.68;;;;;;;;;;5093046;28;20040;-79
2022/02/01 06:03:50;;;;;;;13.07;7.13;;;;;;;;;;5093454;28;20032;-81
2022/02/01 06:06:16;;;;;;;13.50;7.05;;;;;;;;;;5091809;28;20028;-78
2022/02/01 06:08:42;;;;;;;11.23;7.05;;;;;;;;;;5093356;28;20031;-81
2022/02/01 06:11:09;;;;;;;11.13;7.70;;;;;;;;;;5093279;28;20020;-82
2022/02/01 06:13:36;;;;;;;12.82;8.23;;;;;;;;;;5093133;28;20024;-81
2022/02/01 06:16:03;;;;;;;10.70;6.97;;;;;;;;;;5093202;28;20050;-79
2022/02/01 06:18:29;;;;;;;20.65;11.80;;;;;;;;;;5092030;28;20394;-80
2022/02/01 06:20:56;;;;;;;22.40;13.90;;;;;;;;;;5092878;28;20508;-80
2022/02/01 06:23:22;;;;;;;19.60;11.73;;;;;;;;;;5090686;28;20390;-80
2022/02/01 06:25:50;;;;;;;13.48;9.93;;;;;;;;;;5093364;28;20099;-81
2022/02/01 06:28:21;;;;;;;17.48;13.52;;;;;;;;;;5091191;28;20039;-80
2022/02/01 06:30:48;;;;;;;20.15;16.73;;;;;;;;;;5092875;28;20032;-82
2022/02/01 06:33:14;;;;;;;20.17;15.40;;;;;;;;;;5093238;28;20054;-81
2022/02/01 06:35:41;;;;;;;15.63;11.95;;;;;;;;;;5089006;28;20054;-79
2022/02/01 06:38:07;;;;;;;12.38;7.32;;;;;;;;;;5073340;28;20032;-82
2022/02/01 06:40:33;;;;;;;10.57;7.47;;;;;;;;;;5091992;28;20056;-82
2022/02/01 06:42:59;;;;;;;15.52;9.75;;;;;;;;;;5091787;28;20547;-81
2022/02/01 06:45:28;;;;;;;12.10;8.23;;;;;;;;;;5073111;28;20028;-81
2022/02/01 06:47:55;;;;;;;14.00;8.80;;;;;;;;;;5091763;28;20052;-83
2022/02/01 06:50:22;;;;;;;12.75;7.85;;;;;;;;;;5091635;28;20062;-81
2022/02/01 06:52:57;;;;;;;12.48;8.68;;;;;;;;;;5091913;28;20108;-80
2022/02/01 06:58:30;;;;;;;12.10;7.85;;;;;;;;;;5091642;28;20039;-79
2022/02/01 07:00:56;;;;;;;12.25;8.40;;;;;;;;;;5091695;28;20402;-81
2022/02/01 07:03:22;;;;;;;13.65;8.30;;;;;;;;;;5091812;28;20073;-81
2022/02/01 07:05:48;;;;;;;12.50;9.57;;;;;;;;;;5091683;28;20031;-81
2022/02/01 07:08:14;;;;;;;21.85;18.63;;;;;;;;;;5091122;28;20126;-81
2022/02/01 07:10:41;;;;;;;45.67;33.25;;;;;;;;;;5091639;28;20490;-79
2022/02/01 07:13:08;;;;;;;52.42;38.35;;;;;;;;;;5091640;28;20406;-80
2022/02/01 07:15:34;;;;;;;70.22;50.92;;;;;;;;;;5091525;28;20032;-79
2022/02/01 07:18:00;;;;;;;96.35;63.63;;;;;;;;;;5091428;28;20031;-79
2022/02/01 07:20:26;;;;;;;112.10;70.03;;;;;;;;;;5091305;28;20084;-80
2022/02/01 07:22:52;;;;;;;87.20;58.92;;;;;;;;;;5072965;28;20024;-82
2022/02/01 07:25:25;;;;;;;71.25;52.75;;;;;;;;;;5073020;28;20028;-81
2022/02/01 07:27:52;;;;;;;69.97;45.70;;;;;;;;;;5105626;28;20023;-79
2022/02/01 07:30:23;;;;;;;40.00;29.48;;;;;;;;;;5092777;28;20031;-80
2022/02/01 07:32:49;;;;;;;40.67;26.88;;;;;;;;;;5111769;28;20016;-80
2022/02/01 07:35:16;;;;;;;37.30;26.25;;;;;;;;;;5114033;28;20043;-79
2022/02/01 07:37:43;;;;;;;34.55;24.75;;;;;;;;;;5115353;28;20024;-78
2022/02/01 07:40:09;;;;;;;32.83;25.40;;;;;;;;;;5115893;28;20069;-81
2022/02/01 07:42:36;;;;;;;29.98;22.55;;;;;;;;;;5115791;28;20088;-81
2022/02/01 07:45:04;;;;;;;28.02;22.60;;;;;;;;;;5115894;28;20035;-81
2022/02/01 07:47:30;;;;;;;28.23;21.50;;;;;;;;;;5115878;28;20033;-81
2022/02/01 07:49:56;;;;;;;32.58;22.52;;;;;;;;;;5107608;28;20110;-77
2022/02/01 07:52:23;;;;;;;28.38;19.02;;;;;;;;;;5095778;28;20032;-80
2022/02/01 07:54:49;;;;;;;32.70;21.73;;;;;;;;;;5094979;28;20425;-81
2022/02/01 07:57:15;;;;;;;25.63;17.05;;;;;;;;;;5094983;28;20470;-81
2022/02/01 07:59:42;;;;;;;26.35;19.67;;;;;;;;;;5095165;28;20097;-81
2022/02/01 08:02:19;;;;;;;23.25;16.38;;;;;;;;;;5076416;28;20028;-81
2022/02/01 08:04:45;;;;;;;18.52;14.15;;;;;;;;;;5076225;28;20024;-82
2022/02/01 08:07:14;;;;;;;19.92;14.02;;;;;;;;;;5094919;28;20065;-82
2022/02/01 08:09:47;;;;;;;15.98;11.18;;;;;;;;;;5094979;28;20104;-83
2022/02/01 08:17:30;;;;;;;15.25;11.57;;;;;;;;;;5095287;28;20105;-85
2022/02/01 08:20:01;;;;;;;11.65;9.15;;;;;;;;;;5076503;28;20493;-83
2022/02/01 08:24:54;;;;;;;13.30;9.90;;;;;;;;;;5094666;28;20114;-87
2022/02/01 08:27:20;;;;;;;12.93;8.57;;;;;;;;;;5075797;28;20024;-82
2022/02/01 08:29:46;;;;;;;9.23;7.40;;;;;;;;;;5094423;28;20028;-82
2022/02/01 08:32:12;;;;;;;11.52;8.57;;;;;;;;;;5094438;28;20028;-80
2022/02/01 08:34:38;;;;;;;13.32;9.00;;;;;;;;;;5094108;28;20594;-81
2022/02/01 08:37:04;;;;;;;14.35;9.23;;;;;;;;;;5094173;28;20088;-79
2022/02/01 08:39:30;;;;;;;15.50;10.70;;;;;;;;;;5076015;28;20115;-80
2022/02/01 08:41:57;;;;;;;11.95;7.43;;;;;;;;;;5093732;28;20106;-79
2022/02/01 08:44:30;;;;;;;12.82;8.18;;;;;;;;;;5094178;28;20153;-80
2022/02/01 08:46:57;;;;;;;15.70;9.10;;;;;;;;;;5093256;28;20038;-79
2022/02/01 08:49:23;;;;;;;9.98;7.70;;;;;;;;;;5093885;28;20062;-79
2022/02/01 08:51:59;;;;;;;9.52;6.75;;;;;;;;;;5093971;28;20485;-80
2022/02/01 08:54:27;;;;;;;13.77;10.15;;;;;;;;;;5093937;28;20032;-80
2022/02/01 08:59:38;;;;;;;14.20;8.90;;;;;;;;;;5093775;28;20039;-81
2022/02/01 09:02:05;;;;;;;12.43;8.73;;;;;;;;;;5093753;28;20024;-80
2022/02/01 09:04:32;;;;;;;14.40;8.60;;;;;;;;;;5093852;28;20085;-82
2022/02/01 09:06:58;;;;;;;12.45;9.35;;;;;;;;;;5093485;28;20747;-80
2022/02/01 09:09:25;;;;;;;18.90;11.30;;;;;;;;;;5093699;28;20479;-79
2022/02/01 09:11:51;;;;;;;10.15;6.65;;;;;;;;;;5093680;28;20073;-80
2022/02/01 09:14:17;;;;;;;8.05;6.43;;;;;;;;;;5093547;28;20032;-80
2022/02/01 09:16:43;;;;;;;7.32;6.15;;;;;;;;;;5093596;28;20032;-80
2022/02/01 09:19:11;;;;;;;7.57;5.45;;;;;;;;;;5074997;28;20055;-71
2022/02/01 09:21:38;;;;;;;12.05;8.65;;;;;;;;;;5093352;28;20068;-83
2022/02/01 09:24:04;;;;;;;10.80;8.40;;;;;;;;;;5093100;28;20020;-79
2022/02/01 09:26:30;;;;;;;13.60;9.63;;;;;;;;;;5074862;28;20028;-83
2022/02/01 09:28:56;;;;;;;15.77;12.93;;;;;;;;;;5093139;28;20028;-80
2022/02/01 09:31:23;;;;;;;9.38;7.22;;;;;;;;;;5093283;28;20039;-83
2022/02/01 09:33:49;;;;;;;22.17;16.10;;;;;;;;;;5093512;28;20028;-81
2022/02/01 09:36:15;;;;;;;15.35;11.75;;;;;;;;;;5074746;28;20118;-84
2022/02/01 09:38:42;;;;;;;15.13;12.35;;;;;;;;;;5074264;28;20123;-81
2022/02/01 09:41:08;;;;;;;17.05;12.60;;;;;;;;;;5093044;28;20415;-83
2022/02/01 09:43:34;;;;;;;19.02;16.02;;;;;;;;;;5093306;28;20051;-79
2022/02/01 09:46:01;;;;;;;14.82;12.85;;;;;;;;;;5092671;28;20056;-82
2022/02/01 09:48:28;;;;;;;17.67;14.40;;;;;;;;;;5074841;28;20039;-81
2022/02/01 09:50:54;;;;;;;12.15;10.65;;;;;;;;;;5092588;28;20135;-84
2022/02/01 09:53:21;;;;;;;17.75;13.85;;;;;;;;;;5092875;28;20489;-81
2022/02/01 09:55:52;;;;;;;19.27;14.35;;;;;;;;;;5083655;28;20074;-80
2022/02/01 09:58:27;;;;;;;20.00;12.50;;;;;;;;;;5072773;28;20114;-75
2022/02/01 10:00:55;;;;;;;16.02;12.73;;;;;;;;;;5072285;28;20189;-82
2022/02/01 10:03:21;;;;;;;24.85;13.77;;;;;;;;;;5072562;28;20094;-87
2022/02/01 10:06:08;;;;;;;26.73;14.07;;;;;;;;;;5054154;28;20036;-86
2022/02/01 10:08:34;;;;;;;23.60;14.40;;;;;;;;;;5072451;28;20533;-84
2022/02/01 10:11:01;;;;;;;16.15;13.15;;;;;;;;;;5072392;28;20024;-80
2022/02/01 10:13:28;;;;;;;14.80;12.02;;;;;;;;;;5054529;28;20038;-80
2022/02/01 10:18:40;;;;;;;16.55;11.40;;;;;;;;;;5072296;28;20039;-81
2022/02/01 10:21:07;;;;;;;16.83;11.23;;;;;;;;;;5072133;28;20097;-82
2022/02/01 10:23:34;;;;;;;13.13;11.63;;;;;;;;;;5071791;28;20504;-80
2022/02/01 10:26:02;;;;;;;14.40;12.13;;;;;;;;;;5054048;28;20032;-82
2022/02/01 10:34:39;;;;;;;10.77;8.48;;;;;;;;;;5092036;28;20428;-83
2022/02/01 10:37:37;;;;;;;11.88;8.77;;;;;;;;;;5092105;28;20036;-75
2022/02/01 10:40:06;;;;;;;14.77;10.70;;;;;;;;;;5044774;28;20047;-85
2022/02/01 10:42:32;;;;;;;17.88;10.98;;;;;;;;;;5063861;28;20086;-82
2022/02/01 10:44:59;;;;;;;11.50;9.57;;;;;;;;;;5044851;28;20377;-80
2022/02/01 10:47:31;;;;;;;12.38;9.73;;;;;;;;;;5060514;28;20056;-81
2022/02/01 10:50:02;;;;;;;12.25;10.68;;;;;;;;;;5069178;28;20041;-83
2022/02/01 10:52:32;;;;;;;13.13;10.02;;;;;;;;;;5053796;28;20078;-83
2022/02/01 10:54:58;;;;;;;12.43;9.20;;;;;;;;;;5071686;28;20086;-79
2022/02/01 10:57:24;;;;;;;10.18;8.85;;;;;;;;;;5071544;28;20066;-80
2022/02/01 10:59:50;;;;;;;10.50;7.55;;;;;;;;;;5071702;28;20029;-80
2022/02/01 11:02:17;;;;;;;12.00;9.93;;;;;;;;;;5071266;28;20036;-78
2022/02/01 11:04:43;;;;;;;10.38;8.50;;;;;;;;;;5082475;28;20390;-78
2022/02/01 11:07:09;;;;;;;10.00;7.65;;;;;;;;;;5112008;28;20016;-80
2022/02/01 11:09:36;;;;;;;11.50;9.30;;;;;;;;;;5111331;28;20032;-85
2022/02/01 11:12:10;;;;;;;10.02;8.18;;;;;;;;;;5093464;28;20081;-81
2022/02/01 11:14:43;;;;;;;10.40;7.72;;;;;;;;;;5094143;28;20076;-81
2022/02/01 11:17:14;;;;;;;8.70;7.80;;;;;;;;;;5112183;28;20401;-82
2022/02/01 11:19:58;;;;;;;9.98;8.70;;;;;;;;;;5088304;28;20381;-80
2022/02/01 11:22:28;;;;;;;10.55;9.45;;;;;;;;;;5097227;28;20386;-82
2022/02/01 11:24:56;;;;;;;10.00;8.73;;;;;;;;;;5084387;28;20024;-84
2022/02/01 11:27:41;;;;;;;11.63;8.65;;;;;;;;;;5075002;28;20074;-83
2022/02/01 11:30:12;;;;;;;;;;;;;;;;;;5101342;28;20039;-81
2022/02/01 11:32:59;;;;;;;10.13;8.55;;;;;;;;;;5081123;28;19908;-83
2022/02/01 11:35:29;;;;;;;10.93;9.07;;;;;;;;;;5081845;28;20055;-85
2022/02/01 11:38:01;;;;;;;14.73;9.98;;;;;;;;;;5086622;28;20070;-80
2022/02/01 11:40:33;;;;;;;11.07;7.72;;;;;;;;;;5100165;28;20463;-81
2022/02/01 11:43:01;;;;;;;11.10;9.13;;;;;;;;;;5081259;28;20016;-80
2022/02/01 11:45:40;;;;;;;12.40;9.23;;;;;;;;;;5084715;28;20031;-83
2022/02/01 11:48:25;;;;;;;11.15;8.52;;;;;;;;;;5103151;28;20036;-81
2022/02/01 11:50:53;;;;;;;12.52;9.52;;;;;;;;;;5082284;28;20143;-85
2022/02/01 11:53:21;;;;;;;11.15;8.82;;;;;;;;;;5100704;28;20028;-81
2022/02/01 11:58:45;;;;;;;9.63;7.65;;;;;;;;;;5091390;28;20036;-85
2022/02/01 12:01:22;;;;;;;9.63;7.38;;;;;;;;;;5090728;28;20471;-84
2022/02/01 12:03:59;;;;;;;9.77;7.90;;;;;;;;;;5073096;28;20028;-84
2022/02/01 12:06:25;;;;;;;9.63;7.50;;;;;;;;;;5090723;28;20068;-80
2022/02/01 12:08:56;;;;;;;9.77;7.95;;;;;;;;;;5090963;28;20020;-84
2022/02/01 12:11:23;;;;;;;10.05;7.68;;;;;;;;;;5073114;28;20440;-82
2022/02/01 12:13:49;;;;;;;10.75;8.43;;;;;;;;;;5075200;28;20034;-84
2022/02/01 12:16:15;;;;;;;8.98;8.07;;;;;;;;;;5097088;28;20395;-79
2022/02/01 12:18:56;;;;;;;7.25;6.45;;;;;;;;;;5098437;28;20032;-81
2022/02/01 12:21:41;;;;;;;8.25;7.28;;;;;;;;;;5053672;28;20513;-78
2022/02/01 12:24:07;;;;;;;10.15;8.23;;;;;;;;;;5101634;28;20028;-81
2022/02/01 12:26:35;;;;;;;9.15;7.88;;;;;;;;;;5096863;28;20028;-79
2022/02/01 12:29:03;;;;;;;9.98;7.53;;;;;;;;;;5094670;28;20540;-79
2022/02/01 12:31:30;;;;;;;9.77;8.77;;;;;;;;;;5087674;28;20038;-82
2022/02/01 12:33:57;;;;;;;8.75;7.65;;;;;;;;;;5094087;28;20088;-80
2022/02/01 12:36:27;;;;;;;10.80;8.63;;;;;;;;;;5110706;28;20048;-82
2022/02/01 12:38:59;;;;;;;9.52;7.78;;;;;;;;;;5114458;28;20039;-82
2022/02/01 12:41:31;;;;;;;9.13;7.72;;;;;;;;;;5110839;28;20020;-82
2022/02/01 12:46:40;;;;;;;8.60;7.43;;;;;;;;;;5114366;28;20478;-78
2022/02/01 12:49:06;;;;;;;11.68;10.27;;;;;;;;;;5113949;28;20058;-82
2022/02/01 12:51:46;;;;;;;10.02;9.02;;;;;;;;;;5114479;28;20435;-81
2022/02/01 12:54:22;;;;;;;9.40;8.38;;;;;;;;;;5106624;28;20035;-85
2022/02/01 12:56:49;;;;;;;10.52;8.93;;;;;;;;;;5093702;28;20032;-84
2022/02/01 12:59:18;;;;;;;10.50;8.38;;;;;;;;;;5097162;28;20020;-80
2022/02/01 13:01:45;;;;;;;10.23;7.97;;;;;;;;;;5075201;28;20031;-79
2022/02/01 13:04:20;;;;;;;11.27;8.85;;;;;;;;;;5093261;28;20031;-82
2022/02/01 13:06:47;;;;;;;12.27;8.13;;;;;;;;;;5094789;28;20032;-83
2022/02/01 13:14:43;;;;;;;7.55;6.75;;;;;;;;;;5094182;28;20047;-79
2022/02/01 13:17:35;;;;;;;8.20;6.53;;;;;;;;;;5096872;28;20035;-77
2022/02/01 13:20:06;;;;;;;8.65;6.65;;;;;;;;;;5103917;28;20024;-80
2022/02/01 13:22:34;;;;;;;7.82;7.03;;;;;;;;;;5092587;28;20390;-82
2022/02/01 13:25:01;;;;;;;9.63;7.13;;;;;;;;;;5075294;28;20024;-77
2022/02/01 13:27:27;;;;;;;7.35;5.85;;;;;;;;;;5104686;28;20110;-83
2022/02/01 13:30:19;;;;;;;7.70;5.47;;;;;;;;;;5081936;28;20040;-82
2022/02/01 13:32:46;;;;;;;8.93;6.82;;;;;;;;;;5091196;28;20047;-78
2022/02/01 13:35:12;;;;;;;10.07;7.32;;;;;;;;;;5093879;28;20055;-78
2022/02/01 13:37:49;;;;;;;9.77;7.45;;;;;;;;;;5094017;28;20522;-80
2022/02/01 13:40:23;;;;;;;6.85;6.00;;;;;;;;;;5094381;28;20047;-81
2022/02/01 13:42:49;;;;;;;6.72;5.28;;;;;;;;;;5102032;28;20035;-79
2022/02/01 13:45:15;;;;;;;7.82;6.75;;;;;;;;;;5101901;28;20032;-77
2022/02/01 13:47:45;;;;;;;6.43;5.10;;;;;;;;;;5105284;28;20038;-76
2022/02/01 13:50:16;;;;;;;8.00;6.03;;;;;;;;;;5093199;28;20052;-81
2022/02/01 13:52:42;;;;;;;7.32;6.22;;;;;;;;;;5104139;28;20024;-80
2022/02/01 13:55:19;;;;;;;4.75;4.20;;;;;;;;;;5103465;28;20451;-81
2022/02/01 13:57:45;;;;;;;5.72;4.38;;;;;;;;;;5103539;28;20032;-80
2022/02/01 14:00:13;;;;;;;8.38;6.45;;;;;;;;;;5102740;28;20028;-80
2022/02/01 14:02:46;;;;;;;5.88;5.15;;;;;;;;;;5105318;28;20023;-79
2022/02/01 14:05:20;;;;;;;5.72;5.10;;;;;;;;;;5092732;28;20123;-81
2022/02/01 14:10:44;;;;;;;6.32;5.35;;;;;;;;;;5092147;28;20496;-78
2022/02/01 14:26:56;;;;;;;6.80;6.05;;;;;;;;;;5105841;28;20394;-80
2022/02/01 14:34:39;;;;;;;6.95;5.30;;;;;;;;;;5109712;28;20047;-78
2022/02/01 14:37:13;;;;;;;8.77;7.05;;;;;;;;;;5096263;28;20071;-78
2022/02/01 14:45:06;;;;;;;9.38;4.75;;;;;;;;;;5101901;28;20070;-80
2022/02/01 14:47:32;;;;;;;8.38;6.63;;;;;;;;;;5097649;28;20042;-78
2022/02/01 14:49:58;;;;;;;10.00;6.57;;;;;;;;;;5083741;28;20044;-80
2022/02/01 14:52:26;;;;;;;8.13;6.05;;;;;;;;;;5072372;28;20467;-79
2022/02/01 14:54:56;;;;;;;10.10;7.68;;;;;;;;;;5077352;28;20043;-81
2022/02/01 15:06:30;;;;;;;7.40;5.88;;;;;;;;;;5081595;28;20035;-78
2022/02/01 15:13:37;;;;;;;;;;;;;;;;;;5079997;28;20127;-82
2022/02/01 15:16:04;;;;;;;9.40;7.05;;;;;;;;;;5081961;28;20479;-78
2022/02/01 15:18:31;;;;;;;8.30;6.25;;;;;;;;;;5076290;28;20059;-80
2022/02/01 15:20:57;;;;;;;8.63;7.07;;;;;;;;;;5084459;28;20020;-78
2022/02/01 15:23:23;;;;;;;8.52;7.45;;;;;;;;;;5086935;28;20024;-79
2022/02/01 15:25:50;;;;;;;8.38;5.82;;;;;;;;;;5080891;28;20016;-82
2022/02/01 15:28:17;;;;;;;6.32;5.68;;;;;;;;;;5089104;28;20028;-81
2022/02/01 15:30:43;;;;;;;7.03;5.85;;;;;;;;;;5082158;28;20028;-79
2022/02/01 15:33:12;;;;;;;8.27;5.80;;;;;;;;;;5087769;28;20040;-79
2022/02/01 15:35:38;;;;;;;6.45;5.50;;;;;;;;;;5067833;28;20044;-82
2022/02/01 15:38:07;;;;;;;12.93;9.25;;;;;;;;;;5076273;28;20028;-80
2022/02/01 15:57:13;;;;;;;7.53;5.53;;;;;;;;;;5075540;28;20052;-80
2022/02/01 15:59:40;;;;;;;7.85;6.63;;;;;;;;;;5075198;28;20703;-79
2022/02/01 16:02:12;;;;;;;7.85;5.68;;;;;;;;;;5075687;28;20108;-82
2022/02/01 16:04:40;;;;;;;8.43;5.90;;;;;;;;;;5095147;28;20032;-78
2022/02/01 16:07:11;;;;;;;7.50;6.25;;;;;;;;;;5092965;28;20543;-80
2022/02/01 16:10:00;;;;;;;8.80;7.20;;;;;;;;;;5074922;28;20029;-79
2022/02/01 16:12:33;;;;;;;12.98;9.27;;;;;;;;;;5074967;28;20040;-82
2022/02/01 16:14:59;;;;;;;9.20;6.93;;;;;;;;;;5075368;28;20035;-79
2022/02/01 16:17:26;;;;;;;7.65;6.22;;;;;;;;;;5084190;28;20768;-79
2022/02/01 16:19:52;;;;;;;8.40;6.53;;;;;;;;;;5084523;28;20024;-80
2022/02/01 16:22:18;;;;;;;7.40;5.70;;;;;;;;;;5084611;28;20078;-83
2022/02/01 16:24:44;;;;;;;10.75;7.60;;;;;;;;;;5084208;28;20036;-78
2022/02/01 16:27:11;;;;;;;11.65;7.68;;;;;;;;;;5081442;28;20091;-78
2022/02/01 16:29:37;;;;;;;12.70;8.68;;;;;;;;;;5084448;28;20032;-83
2022/02/01 16:32:03;;;;;;;12.90;9.20;;;;;;;;;;5083881;28;20026;-79
2022/02/01 16:34:29;;;;;;;10.05;7.90;;;;;;;;;;5085257;28;20028;-79
2022/02/01 16:36:58;;;;;;;13.43;10.30;;;;;;;;;;5083749;28;20483;-80
2022/02/01 16:39:24;;;;;;;15.50;11.95;;;;;;;;;;5082357;28;20059;-83
2022/02/01 16:41:58;;;;;;;12.02;8.68;;;;;;;;;;5086063;28;20077;-78
2022/02/01 16:44:24;;;;;;;23.90;17.40;;;;;;;;;;5080749;28;20116;-78
2022/02/01 16:46:51;;;;;;;11.60;8.63;;;;;;;;;;5084177;28;20025;-80
2022/02/01 16:49:17;;;;;;;14.38;10.95;;;;;;;;;;5076972;28;20040;-79
2022/02/01 16:51:43;;;;;;;15.48;11.57;;;;;;;;;;5074363;28;20035;-78
2022/02/01 16:54:16;;;;;;;16.38;12.02;;;;;;;;;;5082651;28;20074;-80
2022/02/01 17:01:35;;;;;;;7.75;5.88;;;;;;;;;;5073707;28;20491;-78
2022/02/01 17:04:01;;;;;;;14.80;9.73;;;;;;;;;;5079478;28;20105;-79
2022/02/01 17:06:28;;;;;;;13.23;9.77;;;;;;;;;;5082176;28;20079;-78
2022/02/01 17:08:54;;;;;;;14.25;10.40;;;;;;;;;;5082705;28;20479;-78
2022/02/01 17:11:33;;;;;;;12.57;7.97;;;;;;;;;;5084944;28;20024;-77
2022/02/01 17:14:07;;;;;;;13.60;9.63;;;;;;;;;;5066283;28;20123;-80
2022/02/01 17:22:02;;;;;;;16.45;9.90;;;;;;;;;;5074163;28;20340;-77
2022/02/01 17:24:29;;;;;;;18.63;13.45;;;;;;;;;;5075235;28;20028;-77
2022/02/01 17:26:57;;;;;;;11.30;8.52;;;;;;;;;;5082879;28;20044;-78
2022/02/01 17:29:23;;;;;;;12.98;10.05;;;;;;;;;;5082201;28;20032;-78
2022/02/01 17:31:49;;;;;;;22.65;16.48;;;;;;;;;;5085623;28;20042;-78
2022/02/01 17:34:15;;;;;;;11.55;8.85;;;;;;;;;;5083936;28;20036;-78
2022/02/01 17:36:41;;;;;;;13.25;10.82;;;;;;;;;;5081902;28;20529;-81
2022/02/01 17:39:11;;;;;;;15.70;12.52;;;;;;;;;;5083996;28;20040;-80
2022/02/01 17:41:38;;;;;;;14.35;10.25;;;;;;;;;;5079958;28;20495;-77
2022/02/01 17:44:06;;;;;;;15.77;12.02;;;;;;;;;;5082649;28;20027;-78
2022/02/01 17:46:38;;;;;;;10.40;7.95;;;;;;;;;;5083431;28;20077;-79
2022/02/01 17:49:05;;;;;;;12.57;7.93;;;;;;;;;;5083181;28;20023;-78